sensor_id;sensor_type;location;lat;lon;timestamp;temperature;humidity
31113;DHT22;17763;48.730;9.136;2024-02-28T00:01:07;7.30;99.90
31113;DHT22;17763;48.730;9.136;2024-02-28T00:03:32;7.20;99.90
31113;DHT22;17763;48.730;9.136;2024-02-28T00:06:00;7.20;99.90
31113;DHT22;17763;48.730;9.136;2024-02-28T00:08:26;7.20;99.90
31113;DHT22;17763;48.730;9.136;2024-02-28T00:10:52;7.20;99.90
31113;DHT22;17763;48.730;9.136;2024-02-28T00:13:19;7.20;99.90
31113;DHT22;17763;48.730;9.136;2024-02-28T00:15:45;7.20;99.90
31113;DHT22;17763;48.730;9.136;2024-02-28T00:18:11;7.20;99.90
31113;DHT22;17763;48.730;9.136;2024-02-28T00:20:36;7.10;99.90
31113;DHT22;17763;48.730;9.136;2024-02-28T00:23:02;7.20;99.90
31113;DHT22;17763;48.730;9.136;2024-02-28T00:25:28;7.20;99.90
31113;DHT22;17763;48.730;9.136;2024-02-28T00:27:53;7.20;99.90
31113;DHT22;17763;48.730;9.136;2024-02-28T00:30:19;7.20;99.90
31113;DHT22;17763;48.730;9.136;2024-02-28T00:32:45;7.20;99.90
31113;DHT22;17763;48.730;9.136;2024-02-28T00:35:10;7.20;99.90
31113;DHT22;17763;48.730;9.136;2024-02-28T00:37:36;7.10;99.90
31113;DHT22;17763;48.730;9.136;2024-02-28T00:40:01;7.00;99.90
31113;DHT22;17763;48.730;9.136;2024-02-28T00:42:27;7.00;99.90
31113;DHT22;17763;48.730;9.136;2024-02-28T00:44:55;7.00;99.90
31113;DHT22;17763;48.730;9.136;2024-02-28T00:47:21;6.80;99.90
31113;DHT22;17763;48.730;9.136;2024-02-28T00:49:46;6.90;99.90
31113;DHT22;17763;48.730;9.136;2024-02-28T00:52:14;7.00;99.90
31113;DHT22;17763;48.730;9.136;2024-02-28T00:54:40;6.80;99.90
31113;DHT22;17763;48.730;9.136;2024-02-28T00:57:06;6.80;99.90
31113;DHT22;17763;48.730;9.136;2024-02-28T00:59:31;6.80;99.90
31113;DHT22;17763;48.730;9.136;2024-02-28T01:01:57;6.80;99.90
31113;DHT22;17763;48.730;9.136;2024-02-28T01:04:22;6.80;99.90
31113;DHT22;17763;48.730;9.136;2024-02-28T01:06:48;6.80;99.90
31113;DHT22;17763;48.730;9.136;2024-02-28T01:09:13;6.80;99.90
31113;DHT22;17763;48.730;9.136;2024-02-28T01:11:39;6.80;99.90
31113;DHT22;17763;48.730;9.136;2024-02-28T01:14:05;6.80;99.90
31113;DHT22;17763;48.730;9.136;2024-02-28T01:16:30;6.80;99.90
31113;DHT22;17763;48.730;9.136;2024-02-28T01:18:56;6.80;99.90
31113;DHT22;17763;48.730;9.136;2024-02-28T01:21:21;6.80;99.90
31113;DHT22;17763;48.730;9.136;2024-02-28T01:23:47;6.70;99.90
31113;DHT22;17763;48.730;9.136;2024-02-28T01:26:13;6.70;99.90
31113;DHT22;17763;48.730;9.136;2024-02-28T01:28:41;6.70;99.90
31113;DHT22;17763;48.730;9.136;2024-02-28T01:31:08;6.60;99.90
31113;DHT22;17763;48.730;9.136;2024-02-28T01:33:34;6.60;99.90
31113;DHT22;17763;48.730;9.136;2024-02-28T01:35:59;6.60;99.90
31113;DHT22;17763;48.730;9.136;2024-02-28T01:38:25;6.60;99.90
31113;DHT22;17763;48.730;9.136;2024-02-28T01:40:52;6.60;99.90
31113;DHT22;17763;48.730;9.136;2024-02-28T01:43:17;6.60;99.90
31113;DHT22;17763;48.730;9.136;2024-02-28T01:45:43;6.60;99.90
31113;DHT22;17763;48.730;9.136;2024-02-28T01:48:09;6.60;99.90
31113;DHT22;17763;48.730;9.136;2024-02-28T01:50:36;6.60;99.90
31113;DHT22;17763;48.730;9.136;2024-02-28T01:53:03;6.60;99.90
31113;DHT22;17763;48.730;9.136;2024-02-28T01:55:29;6.60;99.90
31113;DHT22;17763;48.730;9.136;2024-02-28T01:57:55;6.60;99.90
31113;DHT22;17763;48.730;9.136;2024-02-28T02:00:21;6.60;99.90
31113;DHT22;17763;48.730;9.136;2024-02-28T02:02:48;6.60;99.90
31113;DHT22;17763;48.730;9.136;2024-02-28T02:05:14;6.60;99.90
31113;DHT22;17763;48.730;9.136;2024-02-28T02:07:41;6.60;99.90
31113;DHT22;17763;48.730;9.136;2024-02-28T02:10:08;6.60;99.90
31113;DHT22;17763;48.730;9.136;2024-02-28T02:12:36;6.50;99.90
31113;DHT22;17763;48.730;9.136;2024-02-28T02:15:04;6.50;99.90
31113;DHT22;17763;48.730;9.136;2024-02-28T02:17:30;6.60;99.90
31113;DHT22;17763;48.730;9.136;2024-02-28T02:19:55;6.60;99.90
31113;DHT22;17763;48.730;9.136;2024-02-28T02:22:21;6.60;99.90
31113;DHT22;17763;48.730;9.136;2024-02-28T02:24:48;6.70;99.90
31113;DHT22;17763;48.730;9.136;2024-02-28T02:27:14;6.70;99.90
31113;DHT22;17763;48.730;9.136;2024-02-28T02:29:39;6.60;99.90
31113;DHT22;17763;48.730;9.136;2024-02-28T02:32:05;6.60;99.90
31113;DHT22;17763;48.730;9.136;2024-02-28T02:34:33;6.60;99.90
31113;DHT22;17763;48.730;9.136;2024-02-28T02:36:59;6.50;99.90
31113;DHT22;17763;48.730;9.136;2024-02-28T02:39:27;6.50;99.90
31113;DHT22;17763;48.730;9.136;2024-02-28T02:41:53;6.50;99.90
31113;DHT22;17763;48.730;9.136;2024-02-28T02:44:23;6.40;99.90
31113;DHT22;17763;48.730;9.136;2024-02-28T02:46:48;6.40;99.90
31113;DHT22;17763;48.730;9.136;2024-02-28T02:49:14;6.40;99.90
31113;DHT22;17763;48.730;9.136;2024-02-28T02:51:40;6.40;99.90
31113;DHT22;17763;48.730;9.136;2024-02-28T02:54:10;6.40;99.90
31113;DHT22;17763;48.730;9.136;2024-02-28T02:56:36;6.40;99.90
31113;DHT22;17763;48.730;9.136;2024-02-28T02:59:06;6.40;99.90
31113;DHT22;17763;48.730;9.136;2024-02-28T03:01:32;6.40;99.90
31113;DHT22;17763;48.730;9.136;2024-02-28T03:04:00;6.40;99.90
31113;DHT22;17763;48.730;9.136;2024-02-28T03:06:28;6.40;99.90
31113;DHT22;17763;48.730;9.136;2024-02-28T03:08:53;6.40;99.90
31113;DHT22;17763;48.730;9.136;2024-02-28T03:11:19;6.40;99.90
31113;DHT22;17763;48.730;9.136;2024-02-28T03:13:45;6.40;99.90
31113;DHT22;17763;48.730;9.136;2024-02-28T03:16:10;6.40;99.90
31113;DHT22;17763;48.730;9.136;2024-02-28T03:18:36;6.40;99.90
31113;DHT22;17763;48.730;9.136;2024-02-28T03:21:05;6.40;99.90
31113;DHT22;17763;48.730;9.136;2024-02-28T03:23:33;6.30;99.90
31113;DHT22;17763;48.730;9.136;2024-02-28T03:26:01;6.40;99.90
31113;DHT22;17763;48.730;9.136;2024-02-28T03:28:27;6.40;99.90
31113;DHT22;17763;48.730;9.136;2024-02-28T03:30:53;6.40;99.90
31113;DHT22;17763;48.730;9.136;2024-02-28T03:33:18;6.30;99.90
31113;DHT22;17763;48.730;9.136;2024-02-28T03:35:44;6.30;99.90
31113;DHT22;17763;48.730;9.136;2024-02-28T03:38:10;6.40;99.90
31113;DHT22;17763;48.730;9.136;2024-02-28T03:40:36;6.40;99.90
31113;DHT22;17763;48.730;9.136;2024-02-28T03:43:02;6.40;99.90
31113;DHT22;17763;48.730;9.136;2024-02-28T03:45:28;6.40;99.90
31113;DHT22;17763;48.730;9.136;2024-02-28T03:47:57;6.30;99.90
31113;DHT22;17763;48.730;9.136;2024-02-28T03:50:22;6.30;99.90
31113;DHT22;17763;48.730;9.136;2024-02-28T03:52:48;6.20;99.90
31113;DHT22;17763;48.730;9.136;2024-02-28T03:55:15;6.30;99.90
31113;DHT22;17763;48.730;9.136;2024-02-28T03:57:47;6.30;99.90
31113;DHT22;17763;48.730;9.136;2024-02-28T04:00:13;6.30;99.90
31113;DHT22;17763;48.730;9.136;2024-02-28T04:02:39;6.30;99.90
31113;DHT22;17763;48.730;9.136;2024-02-28T04:05:05;6.30;99.90
31113;DHT22;17763;48.730;9.136;2024-02-28T04:07:31;6.30;99.90
31113;DHT22;17763;48.730;9.136;2024-02-28T04:09:56;6.20;99.90
31113;DHT22;17763;48.730;9.136;2024-02-28T04:12:22;6.20;99.90
31113;DHT22;17763;48.730;9.136;2024-02-28T04:14:48;6.20;99.90
31113;DHT22;17763;48.730;9.136;2024-02-28T04:17:13;6.20;99.90
31113;DHT22;17763;48.730;9.136;2024-02-28T04:19:39;6.10;99.90
31113;DHT22;17763;48.730;9.136;2024-02-28T04:22:05;6.20;99.90
31113;DHT22;17763;48.730;9.136;2024-02-28T04:24:31;6.10;99.90
31113;DHT22;17763;48.730;9.136;2024-02-28T04:26:57;6.10;99.90
31113;DHT22;17763;48.730;9.136;2024-02-28T04:29:25;6.00;99.90
31113;DHT22;17763;48.730;9.136;2024-02-28T04:31:53;6.00;99.90
31113;DHT22;17763;48.730;9.136;2024-02-28T04:34:19;6.00;99.90
31113;DHT22;17763;48.730;9.136;2024-02-28T04:36:44;6.00;99.90
31113;DHT22;17763;48.730;9.136;2024-02-28T04:39:10;6.00;99.90
31113;DHT22;17763;48.730;9.136;2024-02-28T04:41:36;6.00;99.90
31113;DHT22;17763;48.730;9.136;2024-02-28T04:44:01;6.00;99.90
31113;DHT22;17763;48.730;9.136;2024-02-28T04:46:28;6.00;99.90
31113;DHT22;17763;48.730;9.136;2024-02-28T04:48:53;6.00;99.90
31113;DHT22;17763;48.730;9.136;2024-02-28T04:51:19;6.10;99.90
31113;DHT22;17763;48.730;9.136;2024-02-28T04:53:45;6.00;99.90
31113;DHT22;17763;48.730;9.136;2024-02-28T04:56:13;6.00;99.90
31113;DHT22;17763;48.730;9.136;2024-02-28T04:58:41;6.10;99.90
31113;DHT22;17763;48.730;9.136;2024-02-28T05:01:07;6.00;99.90
31113;DHT22;17763;48.730;9.136;2024-02-28T05:03:35;6.00;99.90
31113;DHT22;17763;48.730;9.136;2024-02-28T05:06:03;6.00;99.90
31113;DHT22;17763;48.730;9.136;2024-02-28T05:08:29;6.00;99.90
31113;DHT22;17763;48.730;9.136;2024-02-28T05:10:55;6.00;99.90
31113;DHT22;17763;48.730;9.136;2024-02-28T05:13:23;6.00;99.90
31113;DHT22;17763;48.730;9.136;2024-02-28T05:15:52;6.00;99.90
31113;DHT22;17763;48.730;9.136;2024-02-28T05:18:17;5.90;99.90
31113;DHT22;17763;48.730;9.136;2024-02-28T05:20:43;6.00;99.90
31113;DHT22;17763;48.730;9.136;2024-02-28T05:23:09;6.10;99.90
31113;DHT22;17763;48.730;9.136;2024-02-28T05:25:34;5.90;99.90
31113;DHT22;17763;48.730;9.136;2024-02-28T05:28:00;5.90;99.90
31113;DHT22;17763;48.730;9.136;2024-02-28T05:30:25;5.90;99.90
31113;DHT22;17763;48.730;9.136;2024-02-28T05:32:51;5.80;99.90
31113;DHT22;17763;48.730;9.136;2024-02-28T05:35:19;5.80;99.90
31113;DHT22;17763;48.730;9.136;2024-02-28T05:37:47;5.80;99.90
31113;DHT22;17763;48.730;9.136;2024-02-28T05:40:15;5.80;99.90
31113;DHT22;17763;48.730;9.136;2024-02-28T05:42:43;5.80;99.90
31113;DHT22;17763;48.730;9.136;2024-02-28T05:45:09;5.80;99.90
31113;DHT22;17763;48.730;9.136;2024-02-28T05:47:38;5.70;99.90
31113;DHT22;17763;48.730;9.136;2024-02-28T05:50:04;5.80;99.90
31113;DHT22;17763;48.730;9.136;2024-02-28T05:52:30;5.70;99.90
31113;DHT22;17763;48.730;9.136;2024-02-28T05:54:56;5.70;99.90
31113;DHT22;17763;48.730;9.136;2024-02-28T05:57:22;5.70;99.90
31113;DHT22;17763;48.730;9.136;2024-02-28T05:59:51;5.70;99.90
31113;DHT22;17763;48.730;9.136;2024-02-28T06:02:17;5.60;99.90
31113;DHT22;17763;48.730;9.136;2024-02-28T06:04:44;5.60;99.90
31113;DHT22;17763;48.730;9.136;2024-02-28T06:07:10;5.60;99.90
31113;DHT22;17763;48.730;9.136;2024-02-28T06:09:36;5.60;99.90
31113;DHT22;17763;48.730;9.136;2024-02-28T06:12:01;5.60;99.90
31113;DHT22;17763;48.730;9.136;2024-02-28T06:14:29;5.60;99.90
31113;DHT22;17763;48.730;9.136;2024-02-28T06:16:55;5.60;99.90
31113;DHT22;17763;48.730;9.136;2024-02-28T06:19:21;5.60;99.90
31113;DHT22;17763;48.730;9.136;2024-02-28T06:21:51;5.60;99.90
31113;DHT22;17763;48.730;9.136;2024-02-28T06:24:17;5.60;99.90
31113;DHT22;17763;48.730;9.136;2024-02-28T06:26:43;5.60;99.90
31113;DHT22;17763;48.730;9.136;2024-02-28T06:29:09;5.70;99.90
31113;DHT22;17763;48.730;9.136;2024-02-28T06:31:34;5.70;99.90
31113;DHT22;17763;48.730;9.136;2024-02-28T06:34:00;5.70;99.90
31113;DHT22;17763;48.730;9.136;2024-02-28T06:36:27;5.70;99.90
31113;DHT22;17763;48.730;9.136;2024-02-28T06:38:58;5.80;99.90
31113;DHT22;17763;48.730;9.136;2024-02-28T06:41:24;5.80;99.90
31113;DHT22;17763;48.730;9.136;2024-02-28T06:43:50;5.80;99.90
31113;DHT22;17763;48.730;9.136;2024-02-28T06:46:20;5.80;99.90
31113;DHT22;17763;48.730;9.136;2024-02-28T06:48:46;5.90;99.90
31113;DHT22;17763;48.730;9.136;2024-02-28T06:51:11;5.90;99.90
31113;DHT22;17763;48.730;9.136;2024-02-28T06:53:39;5.90;99.90
31113;DHT22;17763;48.730;9.136;2024-02-28T06:56:06;6.00;99.90
31113;DHT22;17763;48.730;9.136;2024-02-28T06:58:31;6.00;99.90
31113;DHT22;17763;48.730;9.136;2024-02-28T07:00:59;6.10;99.90
31113;DHT22;17763;48.730;9.136;2024-02-28T07:03:25;6.10;99.90
31113;DHT22;17763;48.730;9.136;2024-02-28T07:05:53;6.20;99.90
31113;DHT22;17763;48.730;9.136;2024-02-28T07:08:20;6.10;99.90
31113;DHT22;17763;48.730;9.136;2024-02-28T07:10:46;6.30;99.90
31113;DHT22;17763;48.730;9.136;2024-02-28T07:13:15;6.30;99.90
31113;DHT22;17763;48.730;9.136;2024-02-28T07:15:43;6.40;99.90
31113;DHT22;17763;48.730;9.136;2024-02-28T07:18:11;6.40;99.90
31113;DHT22;17763;48.730;9.136;2024-02-28T07:20:39;6.50;99.90
31113;DHT22;17763;48.730;9.136;2024-02-28T07:23:07;6.50;99.90
31113;DHT22;17763;48.730;9.136;2024-02-28T07:25:38;6.50;99.90
31113;DHT22;17763;48.730;9.136;2024-02-28T07:28:06;6.50;99.90
31113;DHT22;17763;48.730;9.136;2024-02-28T07:30:32;6.60;99.90
31113;DHT22;17763;48.730;9.136;2024-02-28T07:32:58;6.60;99.90
31113;DHT22;17763;48.730;9.136;2024-02-28T07:35:26;6.60;99.90
31113;DHT22;17763;48.730;9.136;2024-02-28T07:37:54;6.50;99.90
31113;DHT22;17763;48.730;9.136;2024-02-28T07:40:19;6.60;99.90
31113;DHT22;17763;48.730;9.136;2024-02-28T07:42:47;6.60;99.90
31113;DHT22;17763;48.730;9.136;2024-02-28T07:45:13;6.60;99.90
31113;DHT22;17763;48.730;9.136;2024-02-28T07:47:39;6.50;99.90
31113;DHT22;17763;48.730;9.136;2024-02-28T07:50:06;6.40;99.90
31113;DHT22;17763;48.730;9.136;2024-02-28T07:52:32;6.40;99.90
31113;DHT22;17763;48.730;9.136;2024-02-28T07:55:01;6.40;99.90
31113;DHT22;17763;48.730;9.136;2024-02-28T07:57:27;6.40;99.90
31113;DHT22;17763;48.730;9.136;2024-02-28T07:59:53;6.40;99.90
31113;DHT22;17763;48.730;9.136;2024-02-28T08:02:20;6.40;99.90
31113;DHT22;17763;48.730;9.136;2024-02-28T08:04:46;6.30;99.90
31113;DHT22;17763;48.730;9.136;2024-02-28T08:07:14;6.30;99.90
31113;DHT22;17763;48.730;9.136;2024-02-28T08:09:44;6.30;99.90
31113;DHT22;17763;48.730;9.136;2024-02-28T08:12:12;6.40;99.90
31113;DHT22;17763;48.730;9.136;2024-02-28T08:14:37;6.40;99.90
31113;DHT22;17763;48.730;9.136;2024-02-28T08:17:03;6.40;99.90
31113;DHT22;17763;48.730;9.136;2024-02-28T08:19:32;6.40;99.90
31113;DHT22;17763;48.730;9.136;2024-02-28T08:21:58;6.30;99.90
31113;DHT22;17763;48.730;9.136;2024-02-28T08:24:23;6.30;99.90
31113;DHT22;17763;48.730;9.136;2024-02-28T08:26:49;6.30;99.90
31113;DHT22;17763;48.730;9.136;2024-02-28T08:29:17;6.40;99.90
31113;DHT22;17763;48.730;9.136;2024-02-28T08:31:44;6.40;99.90
31113;DHT22;17763;48.730;9.136;2024-02-28T08:34:12;6.50;99.90
31113;DHT22;17763;48.730;9.136;2024-02-28T08:36:42;6.60;99.90
31113;DHT22;17763;48.730;9.136;2024-02-28T08:39:08;6.60;99.90
31113;DHT22;17763;48.730;9.136;2024-02-28T08:41:34;6.60;99.90
31113;DHT22;17763;48.730;9.136;2024-02-28T08:44:03;6.60;99.90
31113;DHT22;17763;48.730;9.136;2024-02-28T08:46:29;6.70;99.90
31113;DHT22;17763;48.730;9.136;2024-02-28T08:48:54;6.70;99.90
31113;DHT22;17763;48.730;9.136;2024-02-28T08:51:20;6.70;99.90
31113;DHT22;17763;48.730;9.136;2024-02-28T08:53:48;6.60;99.90
31113;DHT22;17763;48.730;9.136;2024-02-28T08:56:13;6.60;99.90
31113;DHT22;17763;48.730;9.136;2024-02-28T08:58:39;6.60;99.90
31113;DHT22;17763;48.730;9.136;2024-02-28T09:01:05;6.60;99.90
31113;DHT22;17763;48.730;9.136;2024-02-28T09:03:31;6.70;99.90
31113;DHT22;17763;48.730;9.136;2024-02-28T09:06:01;6.70;99.90
31113;DHT22;17763;48.730;9.136;2024-02-28T09:08:29;6.70;99.90
31113;DHT22;17763;48.730;9.136;2024-02-28T09:10:55;6.70;99.90
31113;DHT22;17763;48.730;9.136;2024-02-28T09:13:20;6.70;99.90
31113;DHT22;17763;48.730;9.136;2024-02-28T09:15:46;6.60;99.90
31113;DHT22;17763;48.730;9.136;2024-02-28T09:18:12;6.60;99.90
31113;DHT22;17763;48.730;9.136;2024-02-28T09:20:39;6.70;99.90
31113;DHT22;17763;48.730;9.136;2024-02-28T09:23:05;6.80;99.90
31113;DHT22;17763;48.730;9.136;2024-02-28T09:25:32;6.70;99.90
31113;DHT22;17763;48.730;9.136;2024-02-28T09:28:01;6.70;99.90
31113;DHT22;17763;48.730;9.136;2024-02-28T09:30:27;6.70;99.90
31113;DHT22;17763;48.730;9.136;2024-02-28T09:32:58;6.60;99.90
31113;DHT22;17763;48.730;9.136;2024-02-28T09:35:24;6.60;99.90
31113;DHT22;17763;48.730;9.136;2024-02-28T09:37:52;6.60;99.90
31113;DHT22;17763;48.730;9.136;2024-02-28T09:40:18;6.60;99.90
31113;DHT22;17763;48.730;9.136;2024-02-28T09:42:57;6.60;99.90
31113;DHT22;17763;48.730;9.136;2024-02-28T09:45:26;6.60;99.90
31113;DHT22;17763;48.730;9.136;2024-02-28T09:47:52;6.60;99.90
31113;DHT22;17763;48.730;9.136;2024-02-28T09:50:18;6.60;99.90
31113;DHT22;17763;48.730;9.136;2024-02-28T09:52:56;6.70;99.90
31113;DHT22;17763;48.730;9.136;2024-02-28T09:55:22;6.70;99.90
31113;DHT22;17763;48.730;9.136;2024-02-28T09:57:49;6.70;99.90
31113;DHT22;17763;48.730;9.136;2024-02-28T10:00:19;6.80;99.90
31113;DHT22;17763;48.730;9.136;2024-02-28T10:02:47;6.90;99.90
31113;DHT22;17763;48.730;9.136;2024-02-28T10:05:17;6.90;99.90
31113;DHT22;17763;48.730;9.136;2024-02-28T10:07:47;6.90;99.90
31113;DHT22;17763;48.730;9.136;2024-02-28T10:10:13;7.00;99.90
31113;DHT22;17763;48.730;9.136;2024-02-28T10:12:42;7.10;99.90
31113;DHT22;17763;48.730;9.136;2024-02-28T10:15:09;7.10;99.90
31113;DHT22;17763;48.730;9.136;2024-02-28T10:17:35;7.10;99.90
31113;DHT22;17763;48.730;9.136;2024-02-28T10:20:01;7.20;99.90
31113;DHT22;17763;48.730;9.136;2024-02-28T10:22:39;7.20;99.90
31113;DHT22;17763;48.730;9.136;2024-02-28T10:25:05;7.20;99.90
31113;DHT22;17763;48.730;9.136;2024-02-28T10:27:34;7.20;99.90
31113;DHT22;17763;48.730;9.136;2024-02-28T10:30:01;7.30;99.90
31113;DHT22;17763;48.730;9.136;2024-02-28T10:32:30;7.30;99.90
31113;DHT22;17763;48.730;9.136;2024-02-28T10:34:58;7.20;99.90
31113;DHT22;17763;48.730;9.136;2024-02-28T10:37:24;7.20;99.90
31113;DHT22;17763;48.730;9.136;2024-02-28T10:39:51;7.20;99.90
31113;DHT22;17763;48.730;9.136;2024-02-28T10:42:18;7.20;99.90
31113;DHT22;17763;48.730;9.136;2024-02-28T10:44:50;7.20;99.90
31113;DHT22;17763;48.730;9.136;2024-02-28T10:47:21;7.20;99.90
31113;DHT22;17763;48.730;9.136;2024-02-28T10:49:47;7.20;99.90
31113;DHT22;17763;48.730;9.136;2024-02-28T10:52:17;7.30;99.90
31113;DHT22;17763;48.730;9.136;2024-02-28T10:54:46;7.30;99.90
31113;DHT22;17763;48.730;9.136;2024-02-28T10:57:16;7.40;99.90
31113;DHT22;17763;48.730;9.136;2024-02-28T10:59:43;7.50;99.90
31113;DHT22;17763;48.730;9.136;2024-02-28T11:02:12;7.60;99.90
31113;DHT22;17763;48.730;9.136;2024-02-28T11:04:38;7.70;99.90
31113;DHT22;17763;48.730;9.136;2024-02-28T11:07:05;7.80;99.90
31113;DHT22;17763;48.730;9.136;2024-02-28T11:09:31;7.90;99.90
31113;DHT22;17763;48.730;9.136;2024-02-28T11:11:57;7.90;99.90
31113;DHT22;17763;48.730;9.136;2024-02-28T11:14:26;7.80;99.90
31113;DHT22;17763;48.730;9.136;2024-02-28T11:17:04;7.80;99.90
31113;DHT22;17763;48.730;9.136;2024-02-28T11:19:31;7.70;99.90
31113;DHT22;17763;48.730;9.136;2024-02-28T11:22:00;7.70;99.90
31113;DHT22;17763;48.730;9.136;2024-02-28T11:24:31;7.70;99.90
31113;DHT22;17763;48.730;9.136;2024-02-28T11:26:57;7.70;99.90
31113;DHT22;17763;48.730;9.136;2024-02-28T11:29:26;7.70;99.90
31113;DHT22;17763;48.730;9.136;2024-02-28T11:31:54;7.40;99.90
31113;DHT22;17763;48.730;9.136;2024-02-28T11:34:20;7.40;99.90
31113;DHT22;17763;48.730;9.136;2024-02-28T11:36:49;7.40;99.90
31113;DHT22;17763;48.730;9.136;2024-02-28T11:39:16;7.50;99.90
31113;DHT22;17763;48.730;9.136;2024-02-28T11:41:44;7.50;99.90
31113;DHT22;17763;48.730;9.136;2024-02-28T11:44:19;7.60;99.90
31113;DHT22;17763;48.730;9.136;2024-02-28T11:46:46;7.70;99.90
31113;DHT22;17763;48.730;9.136;2024-02-28T11:49:15;7.70;99.90
31113;DHT22;17763;48.730;9.136;2024-02-28T11:51:42;7.60;99.90
31113;DHT22;17763;48.730;9.136;2024-02-28T11:54:09;7.60;99.90
31113;DHT22;17763;48.730;9.136;2024-02-28T11:56:38;7.60;99.90
31113;DHT22;17763;48.730;9.136;2024-02-28T11:59:04;7.60;99.90
31113;DHT22;17763;48.730;9.136;2024-02-28T12:01:37;7.60;99.90
31113;DHT22;17763;48.730;9.136;2024-02-28T12:04:06;7.60;99.90
31113;DHT22;17763;48.730;9.136;2024-02-28T12:06:36;7.50;99.90
31113;DHT22;17763;48.730;9.136;2024-02-28T12:09:05;7.50;99.90
31113;DHT22;17763;48.730;9.136;2024-02-28T12:11:32;7.40;99.90
31113;DHT22;17763;48.730;9.136;2024-02-28T12:14:03;7.30;99.90
31113;DHT22;17763;48.730;9.136;2024-02-28T12:16:30;7.20;99.90
31113;DHT22;17763;48.730;9.136;2024-02-28T12:18:56;7.10;99.90
31113;DHT22;17763;48.730;9.136;2024-02-28T12:21:21;7.00;99.90
31113;DHT22;17763;48.730;9.136;2024-02-28T12:23:50;7.20;99.90
31113;DHT22;17763;48.730;9.136;2024-02-28T12:26:19;7.30;99.90
31113;DHT22;17763;48.730;9.136;2024-02-28T12:28:50;7.30;99.90
31113;DHT22;17763;48.730;9.136;2024-02-28T12:31:15;7.30;99.90
31113;DHT22;17763;48.730;9.136;2024-02-28T12:33:41;7.30;99.90
31113;DHT22;17763;48.730;9.136;2024-02-28T12:36:07;7.30;99.90
31113;DHT22;17763;48.730;9.136;2024-02-28T12:38:33;7.30;99.90
31113;DHT22;17763;48.730;9.136;2024-02-28T12:40:59;7.20;99.90
31113;DHT22;17763;48.730;9.136;2024-02-28T12:43:25;7.20;99.90
31113;DHT22;17763;48.730;9.136;2024-02-28T12:45:53;7.20;99.90
31113;DHT22;17763;48.730;9.136;2024-02-28T12:48:19;7.20;99.90
31113;DHT22;17763;48.730;9.136;2024-02-28T12:50:45;7.20;99.90
31113;DHT22;17763;48.730;9.136;2024-02-28T12:53:10;7.10;99.90
31113;DHT22;17763;48.730;9.136;2024-02-28T12:55:36;7.20;99.90
31113;DHT22;17763;48.730;9.136;2024-02-28T12:58:02;7.20;99.90
31113;DHT22;17763;48.730;9.136;2024-02-28T13:00:31;7.20;99.90
31113;DHT22;17763;48.730;9.136;2024-02-28T13:02:57;7.20;99.90
31113;DHT22;17763;48.730;9.136;2024-02-28T13:05:23;7.20;99.90
31113;DHT22;17763;48.730;9.136;2024-02-28T13:07:48;7.20;99.90
31113;DHT22;17763;48.730;9.136;2024-02-28T13:10:14;7.20;99.90
31113;DHT22;17763;48.730;9.136;2024-02-28T13:12:40;7.20;99.90
31113;DHT22;17763;48.730;9.136;2024-02-28T13:15:06;7.30;99.90
31113;DHT22;17763;48.730;9.136;2024-02-28T13:17:38;7.20;99.90
31113;DHT22;17763;48.730;9.136;2024-02-28T13:20:08;7.20;99.90
31113;DHT22;17763;48.730;9.136;2024-02-28T13:22:36;7.10;99.90
31113;DHT22;17763;48.730;9.136;2024-02-28T13:25:02;7.10;99.90
31113;DHT22;17763;48.730;9.136;2024-02-28T13:27:28;7.10;99.90
31113;DHT22;17763;48.730;9.136;2024-02-28T13:29:53;7.00;99.90
31113;DHT22;17763;48.730;9.136;2024-02-28T13:32:19;7.00;99.90
31113;DHT22;17763;48.730;9.136;2024-02-28T13:34:48;7.00;99.90
31113;DHT22;17763;48.730;9.136;2024-02-28T13:37:13;6.90;99.90
31113;DHT22;17763;48.730;9.136;2024-02-28T13:39:41;6.90;99.90
31113;DHT22;17763;48.730;9.136;2024-02-28T13:42:09;6.90;99.90
31113;DHT22;17763;48.730;9.136;2024-02-28T13:44:35;6.90;99.90
31113;DHT22;17763;48.730;9.136;2024-02-28T13:47:06;6.90;99.90
31113;DHT22;17763;48.730;9.136;2024-02-28T13:49:32;7.00;99.90
31113;DHT22;17763;48.730;9.136;2024-02-28T13:52:00;7.00;99.90
31113;DHT22;17763;48.730;9.136;2024-02-28T13:54:36;7.10;99.90
31113;DHT22;17763;48.730;9.136;2024-02-28T13:57:10;7.10;99.90
31113;DHT22;17763;48.730;9.136;2024-02-28T13:59:40;7.10;99.90
31113;DHT22;17763;48.730;9.136;2024-02-28T14:02:16;7.20;99.90
31113;DHT22;17763;48.730;9.136;2024-02-28T14:04:54;7.30;99.90
31113;DHT22;17763;48.730;9.136;2024-02-28T14:07:19;7.40;99.90
31113;DHT22;17763;48.730;9.136;2024-02-28T14:09:45;7.30;99.90
31113;DHT22;17763;48.730;9.136;2024-02-28T14:12:11;7.30;99.90
31113;DHT22;17763;48.730;9.136;2024-02-28T14:14:37;7.30;99.90
31113;DHT22;17763;48.730;9.136;2024-02-28T14:17:07;7.30;99.90
31113;DHT22;17763;48.730;9.136;2024-02-28T14:19:32;7.30;99.90
31113;DHT22;17763;48.730;9.136;2024-02-28T14:22:00;7.30;99.90
31113;DHT22;17763;48.730;9.136;2024-02-28T14:24:29;7.40;99.90
31113;DHT22;17763;48.730;9.136;2024-02-28T14:26:59;7.40;99.90
31113;DHT22;17763;48.730;9.136;2024-02-28T14:29:24;7.40;99.90
31113;DHT22;17763;48.730;9.136;2024-02-28T14:31:54;7.40;99.90
31113;DHT22;17763;48.730;9.136;2024-02-28T14:34:20;7.30;99.90
31113;DHT22;17763;48.730;9.136;2024-02-28T14:36:48;7.30;99.90
31113;DHT22;17763;48.730;9.136;2024-02-28T14:39:15;7.30;99.90
31113;DHT22;17763;48.730;9.136;2024-02-28T14:41:44;7.40;99.90
31113;DHT22;17763;48.730;9.136;2024-02-28T14:44:10;7.30;99.90
31113;DHT22;17763;48.730;9.136;2024-02-28T14:46:36;7.50;99.90
31113;DHT22;17763;48.730;9.136;2024-02-28T14:49:02;7.20;99.90
31113;DHT22;17763;48.730;9.136;2024-02-28T14:51:30;7.30;99.90
31113;DHT22;17763;48.730;9.136;2024-02-28T14:53:56;7.20;99.90
31113;DHT22;17763;48.730;9.136;2024-02-28T14:56:23;7.30;99.90
31113;DHT22;17763;48.730;9.136;2024-02-28T14:58:48;7.40;99.90
31113;DHT22;17763;48.730;9.136;2024-02-28T15:01:14;7.40;99.90
31113;DHT22;17763;48.730;9.136;2024-02-28T15:03:40;7.50;99.90
31113;DHT22;17763;48.730;9.136;2024-02-28T15:06:07;7.50;99.90
31113;DHT22;17763;48.730;9.136;2024-02-28T15:08:33;7.30;99.90
31113;DHT22;17763;48.730;9.136;2024-02-28T15:10:59;7.70;99.90
31113;DHT22;17763;48.730;9.136;2024-02-28T15:13:27;7.00;99.90
31113;DHT22;17763;48.730;9.136;2024-02-28T15:15:53;7.00;99.90
31113;DHT22;17763;48.730;9.136;2024-02-28T15:18:19;7.00;99.90
31113;DHT22;17763;48.730;9.136;2024-02-28T15:20:45;6.90;99.90
31113;DHT22;17763;48.730;9.136;2024-02-28T15:23:10;6.90;99.90
31113;DHT22;17763;48.730;9.136;2024-02-28T15:25:39;6.80;99.90
31113;DHT22;17763;48.730;9.136;2024-02-28T15:28:07;6.90;99.90
31113;DHT22;17763;48.730;9.136;2024-02-28T15:30:33;6.90;99.90
31113;DHT22;17763;48.730;9.136;2024-02-28T15:32:58;6.90;99.90
31113;DHT22;17763;48.730;9.136;2024-02-28T15:35:24;7.00;99.90
31113;DHT22;17763;48.730;9.136;2024-02-28T15:37:50;7.10;99.90
31113;DHT22;17763;48.730;9.136;2024-02-28T15:40:16;7.10;99.90
31113;DHT22;17763;48.730;9.136;2024-02-28T15:42:46;7.10;99.90